sensor_id;sensor_type;location;lat;lon;timestamp;P1;durP1;ratioP1;P2;durP2;ratioP2
10902;SDS011;5504;47.312;11.060;2023-01-09T00:00:46;2.00;;;1.80;;
10902;SDS011;5504;47.312;11.060;2023-01-09T00:03:12;2.00;;;1.80;;
10902;SDS011;5504;47.312;11.060;2023-01-09T00:05:38;3.10;;;2.50;;
10902;SDS011;5504;47.312;11.060;2023-01-09T00:08:04;3.03;;;2.57;;
10902;SDS011;5504;47.312;11.060;2023-01-09T00:10:30;2.87;;;2.30;;
10902;SDS011;5504;47.312;11.060;2023-01-09T00:12:55;2.70;;;2.37;;
10902;SDS011;5504;47.312;11.060;2023-01-09T00:15:21;2.50;;;2.30;;
10902;SDS011;5504;47.312;11.060;2023-01-09T00:17:47;2.30;;;2.10;;
10902;SDS011;5504;47.312;11.060;2023-01-09T00:20:14;2.67;;;2.10;;
10902;SDS011;5504;47.312;11.060;2023-01-09T00:22:40;3.17;;;2.17;;
10902;SDS011;5504;47.312;11.060;2023-01-09T00:25:05;3.07;;;2.43;;
10902;SDS011;5504;47.312;11.060;2023-01-09T00:27:32;2.80;;;2.20;;
10902;SDS011;5504;47.312;11.060;2023-01-09T00:29:59;2.20;;;1.77;;
10902;SDS011;5504;47.312;11.060;2023-01-09T00:32:25;2.20;;;1.90;;
10902;SDS011;5504;47.312;11.060;2023-01-09T00:34:52;2.30;;;2.07;;
10902;SDS011;5504;47.312;11.060;2023-01-09T00:37:18;2.57;;;2.10;;
10902;SDS011;5504;47.312;11.060;2023-01-09T00:39:44;2.77;;;1.87;;
10902;SDS011;5504;47.312;11.060;2023-01-09T00:42:11;2.60;;;1.80;;
10902;SDS011;5504;47.312;11.060;2023-01-09T00:44:47;2.13;;;1.60;;
10902;SDS011;5504;47.312;11.060;2023-01-09T00:47:17;2.53;;;1.90;;
10902;SDS011;5504;47.312;11.060;2023-01-09T00:49:46;2.00;;;1.70;;
10902;SDS011;5504;47.312;11.060;2023-01-09T00:52:13;2.20;;;2.00;;
10902;SDS011;5504;47.312;11.060;2023-01-09T00:54:40;3.30;;;1.80;;
10902;SDS011;5504;47.312;11.060;2023-01-09T00:57:07;2.37;;;1.77;;
10902;SDS011;5504;47.312;11.060;2023-01-09T00:59:35;2.77;;;2.20;;
10902;SDS011;5504;47.312;11.060;2023-01-09T01:02:01;2.27;;;1.80;;
10902;SDS011;5504;47.312;11.060;2023-01-09T01:04:27;2.10;;;1.80;;
10902;SDS011;5504;47.312;11.060;2023-01-09T01:07:11;1.80;;;1.30;;
10902;SDS011;5504;47.312;11.060;2023-01-09T01:09:55;1.30;;;1.13;;
10902;SDS011;5504;47.312;11.060;2023-01-09T01:12:21;2.53;;;1.43;;
10902;SDS011;5504;47.312;11.060;2023-01-09T01:14:47;1.93;;;1.73;;
10902;SDS011;5504;47.312;11.060;2023-01-09T01:17:12;2.63;;;1.70;;
10902;SDS011;5504;47.312;11.060;2023-01-09T01:19:38;2.27;;;1.90;;
10902;SDS011;5504;47.312;11.060;2023-01-09T01:22:04;2.30;;;1.70;;
10902;SDS011;5504;47.312;11.060;2023-01-09T01:24:30;1.93;;;1.70;;
10902;SDS011;5504;47.312;11.060;2023-01-09T01:26:56;1.77;;;1.50;;
10902;SDS011;5504;47.312;11.060;2023-01-09T01:29:21;1.77;;;1.63;;
10902;SDS011;5504;47.312;11.060;2023-01-09T01:31:47;1.83;;;1.57;;
10902;SDS011;5504;47.312;11.060;2023-01-09T01:34:13;1.53;;;1.33;;
10902;SDS011;5504;47.312;11.060;2023-01-09T01:36:38;1.53;;;1.17;;
10902;SDS011;5504;47.312;11.060;2023-01-09T01:39:04;1.40;;;1.20;;
10902;SDS011;5504;47.312;11.060;2023-01-09T01:41:30;1.17;;;1.07;;
10902;SDS011;5504;47.312;11.060;2023-01-09T01:43:57;1.10;;;1.00;;
10902;SDS011;5504;47.312;11.060;2023-01-09T01:46:24;1.50;;;1.30;;
10902;SDS011;5504;47.312;11.060;2023-01-09T01:49:09;1.37;;;1.20;;
10902;SDS011;5504;47.312;11.060;2023-01-09T01:51:41;1.57;;;1.20;;
10902;SDS011;5504;47.312;11.060;2023-01-09T01:54:14;1.77;;;1.50;;
10902;SDS011;5504;47.312;11.060;2023-01-09T01:56:46;2.00;;;1.80;;
10902;SDS011;5504;47.312;11.060;2023-01-09T01:59:18;2.43;;;2.10;;
10902;SDS011;5504;47.312;11.060;2023-01-09T02:01:47;2.70;;;2.00;;
10902;SDS011;5504;47.312;11.060;2023-01-09T02:04:15;1.83;;;1.50;;
10902;SDS011;5504;47.312;11.060;2023-01-09T02:06:41;2.37;;;1.87;;
10902;SDS011;5504;47.312;11.060;2023-01-09T02:09:09;2.83;;;1.70;;
10902;SDS011;5504;47.312;11.060;2023-01-09T02:11:43;2.63;;;1.70;;
10902;SDS011;5504;47.312;11.060;2023-01-09T02:14:10;2.03;;;1.80;;
10902;SDS011;5504;47.312;11.060;2023-01-09T02:22:00;1.60;;;1.40;;
10902;SDS011;5504;47.312;11.060;2023-01-09T02:30:31;2.20;;;2.00;;
10902;SDS011;5504;47.312;11.060;2023-01-09T02:36:09;1.97;;;1.73;;
10902;SDS011;5504;47.312;11.060;2023-01-09T02:41:42;2.17;;;1.80;;
10902;SDS011;5504;47.312;11.060;2023-01-09T02:44:26;2.70;;;2.10;;
10902;SDS011;5504;47.312;11.060;2023-01-09T02:50:01;2.00;;;1.80;;
10902;SDS011;5504;47.312;11.060;2023-01-09T02:55:18;1.67;;;1.50;;
10902;SDS011;5504;47.312;11.060;2023-01-09T03:08:15;1.77;;;1.67;;
10902;SDS011;5504;47.312;11.060;2023-01-09T03:10:56;2.27;;;1.90;;
10902;SDS011;5504;47.312;11.060;2023-01-09T03:13:24;2.20;;;2.00;;
10902;SDS011;5504;47.312;11.060;2023-01-09T03:15:55;2.30;;;2.10;;
10902;SDS011;5504;47.312;11.060;2023-01-09T03:18:24;2.77;;;2.10;;
10902;SDS011;5504;47.312;11.060;2023-01-09T03:20:53;2.00;;;1.80;;
10902;SDS011;5504;47.312;11.060;2023-01-09T03:23:19;2.63;;;1.90;;
10902;SDS011;5504;47.312;11.060;2023-01-09T03:25:45;2.53;;;2.07;;
10902;SDS011;5504;47.312;11.060;2023-01-09T03:28:17;2.37;;;2.17;;
10902;SDS011;5504;47.312;11.060;2023-01-09T03:30:49;2.67;;;2.10;;
10902;SDS011;5504;47.312;11.060;2023-01-09T03:33:15;5.93;;;2.50;;
10902;SDS011;5504;47.312;11.060;2023-01-09T03:35:40;3.60;;;2.03;;
10902;SDS011;5504;47.312;11.060;2023-01-09T03:38:06;2.37;;;2.10;;
10902;SDS011;5504;47.312;11.060;2023-01-09T03:40:32;2.87;;;2.13;;
10902;SDS011;5504;47.312;11.060;2023-01-09T03:42:57;2.37;;;1.90;;
10902;SDS011;5504;47.312;11.060;2023-01-09T03:45:23;2.67;;;1.87;;
10902;SDS011;5504;47.312;11.060;2023-01-09T03:47:49;2.20;;;1.90;;
10902;SDS011;5504;47.312;11.060;2023-01-09T03:50:14;4.37;;;2.47;;
10902;SDS011;5504;47.312;11.060;2023-01-09T03:52:40;3.43;;;2.53;;
10902;SDS011;5504;47.312;11.060;2023-01-09T03:55:06;2.60;;;2.10;;
10902;SDS011;5504;47.312;11.060;2023-01-09T03:57:32;3.67;;;2.23;;
10902;SDS011;5504;47.312;11.060;2023-01-09T03:59:58;2.97;;;2.30;;
10902;SDS011;5504;47.312;11.060;2023-01-09T04:02:23;4.97;;;4.03;;
10902;SDS011;5504;47.312;11.060;2023-01-09T04:04:49;4.70;;;3.90;;
10902;SDS011;5504;47.312;11.060;2023-01-09T04:07:15;3.67;;;2.70;;
10902;SDS011;5504;47.312;11.060;2023-01-09T04:09:41;4.90;;;2.90;;
10902;SDS011;5504;47.312;11.060;2023-01-09T04:12:08;3.60;;;2.30;;
10902;SDS011;5504;47.312;11.060;2023-01-09T04:14:34;2.60;;;2.00;;
10902;SDS011;5504;47.312;11.060;2023-01-09T04:16:59;2.17;;;1.97;;
10902;SDS011;5504;47.312;11.060;2023-01-09T04:19:25;3.23;;;2.60;;
10902;SDS011;5504;47.312;11.060;2023-01-09T04:21:51;2.93;;;2.10;;
10902;SDS011;5504;47.312;11.060;2023-01-09T04:24:16;3.87;;;2.60;;
10902;SDS011;5504;47.312;11.060;2023-01-09T04:26:42;3.27;;;2.80;;
10902;SDS011;5504;47.312;11.060;2023-01-09T04:29:08;3.03;;;2.70;;
10902;SDS011;5504;47.312;11.060;2023-01-09T04:31:33;3.47;;;3.13;;
10902;SDS011;5504;47.312;11.060;2023-01-09T04:33:59;2.67;;;2.40;;
10902;SDS011;5504;47.312;11.060;2023-01-09T04:36:25;2.93;;;2.63;;
10902;SDS011;5504;47.312;11.060;2023-01-09T04:38:50;3.80;;;2.77;;
10902;SDS011;5504;47.312;11.060;2023-01-09T04:41:16;2.67;;;2.30;;
10902;SDS011;5504;47.312;11.060;2023-01-09T04:44:02;2.67;;;2.40;;
10902;SDS011;5504;47.312;11.060;2023-01-09T04:46:28;4.00;;;2.70;;
10902;SDS011;5504;47.312;11.060;2023-01-09T04:48:53;3.27;;;2.53;;
10902;SDS011;5504;47.312;11.060;2023-01-09T04:51:19;3.80;;;2.80;;
10902;SDS011;5504;47.312;11.060;2023-01-09T04:53:45;3.97;;;2.43;;
10902;SDS011;5504;47.312;11.060;2023-01-09T04:56:10;3.30;;;2.27;;
10902;SDS011;5504;47.312;11.060;2023-01-09T04:58:36;2.37;;;2.10;;
10902;SDS011;5504;47.312;11.060;2023-01-09T05:01:02;3.30;;;2.77;;
10902;SDS011;5504;47.312;11.060;2023-01-09T05:03:27;4.73;;;3.43;;
10902;SDS011;5504;47.312;11.060;2023-01-09T05:05:53;3.50;;;3.20;;
10902;SDS011;5504;47.312;11.060;2023-01-09T05:08:19;3.07;;;2.67;;
10902;SDS011;5504;47.312;11.060;2023-01-09T05:10:44;2.80;;;2.50;;
10902;SDS011;5504;47.312;11.060;2023-01-09T05:13:10;3.80;;;2.87;;
10902;SDS011;5504;47.312;11.060;2023-01-09T05:15:36;3.80;;;2.90;;
10902;SDS011;5504;47.312;11.060;2023-01-09T05:18:01;3.03;;;2.70;;
10902;SDS011;5504;47.312;11.060;2023-01-09T05:20:27;1.77;;;1.67;;
10902;SDS011;5504;47.312;11.060;2023-01-09T05:22:53;3.00;;;2.70;;
10902;SDS011;5504;47.312;11.060;2023-01-09T05:25:18;3.67;;;3.00;;
10902;SDS011;5504;47.312;11.060;2023-01-09T05:27:44;3.27;;;2.77;;
10902;SDS011;5504;47.312;11.060;2023-01-09T05:30:11;4.13;;;2.77;;
10902;SDS011;5504;47.312;11.060;2023-01-09T05:32:37;2.63;;;2.40;;
10902;SDS011;5504;47.312;11.060;2023-01-09T05:35:03;3.70;;;2.70;;
10902;SDS011;5504;47.312;11.060;2023-01-09T05:37:29;3.27;;;2.13;;
10902;SDS011;5504;47.312;11.060;2023-01-09T05:39:55;2.07;;;1.87;;
10902;SDS011;5504;47.312;11.060;2023-01-09T05:42:20;3.03;;;1.90;;
10902;SDS011;5504;47.312;11.060;2023-01-09T05:44:46;2.93;;;2.40;;
10902;SDS011;5504;47.312;11.060;2023-01-09T05:47:12;2.10;;;1.90;;
10902;SDS011;5504;47.312;11.060;2023-01-09T05:49:37;2.20;;;1.87;;
10902;SDS011;5504;47.312;11.060;2023-01-09T05:52:03;2.20;;;1.70;;
10902;SDS011;5504;47.312;11.060;2023-01-09T05:54:29;2.07;;;1.57;;
10902;SDS011;5504;47.312;11.060;2023-01-09T05:56:55;1.43;;;1.30;;
10902;SDS011;5504;47.312;11.060;2023-01-09T05:59:21;2.23;;;1.20;;
10902;SDS011;5504;47.312;11.060;2023-01-09T06:01:46;1.10;;;1.00;;
10902;SDS011;5504;47.312;11.060;2023-01-09T06:04:12;1.60;;;1.23;;
10902;SDS011;5504;47.312;11.060;2023-01-09T06:06:38;1.33;;;1.17;;
10902;SDS011;5504;47.312;11.060;2023-01-09T06:09:05;1.50;;;1.37;;
10902;SDS011;5504;47.312;11.060;2023-01-09T06:11:30;1.47;;;1.10;;
10902;SDS011;5504;47.312;11.060;2023-01-09T06:13:59;1.40;;;1.30;;
10902;SDS011;5504;47.312;11.060;2023-01-09T06:16:25;1.97;;;1.63;;
10902;SDS011;5504;47.312;11.060;2023-01-09T06:18:51;1.77;;;1.53;;
10902;SDS011;5504;47.312;11.060;2023-01-09T06:21:17;2.40;;;1.40;;
10902;SDS011;5504;47.312;11.060;2023-01-09T06:23:43;1.67;;;1.20;;
10902;SDS011;5504;47.312;11.060;2023-01-09T06:26:08;1.20;;;1.10;;
10902;SDS011;5504;47.312;11.060;2023-01-09T06:28:34;1.20;;;1.10;;
10902;SDS011;5504;47.312;11.060;2023-01-09T06:31:00;1.70;;;0.97;;
10902;SDS011;5504;47.312;11.060;2023-01-09T06:33:26;1.20;;;1.10;;
10902;SDS011;5504;47.312;11.060;2023-01-09T06:35:52;1.10;;;1.00;;
10902;SDS011;5504;47.312;11.060;2023-01-09T06:38:17;1.20;;;1.10;;
10902;SDS011;5504;47.312;11.060;2023-01-09T06:40:43;1.47;;;1.20;;
10902;SDS011;5504;47.312;11.060;2023-01-09T06:43:09;1.57;;;1.40;;
10902;SDS011;5504;47.312;11.060;2023-01-09T06:45:34;1.47;;;1.30;;
10902;SDS011;5504;47.312;11.060;2023-01-09T06:48:00;1.70;;;1.00;;
10902;SDS011;5504;47.312;11.060;2023-01-09T06:50:26;1.20;;;1.00;;
10902;SDS011;5504;47.312;11.060;2023-01-09T06:52:52;1.30;;;1.20;;
10902;SDS011;5504;47.312;11.060;2023-01-09T06:55:17;1.20;;;1.10;;
10902;SDS011;5504;47.312;11.060;2023-01-09T06:57:43;1.30;;;1.10;;
10902;SDS011;5504;47.312;11.060;2023-01-09T07:00:09;1.20;;;1.10;;
10902;SDS011;5504;47.312;11.060;2023-01-09T07:02:35;1.10;;;1.00;;
10902;SDS011;5504;47.312;11.060;2023-01-09T07:05:01;1.30;;;1.17;;
10902;SDS011;5504;47.312;11.060;2023-01-09T07:07:31;1.10;;;1.00;;
10902;SDS011;5504;47.312;11.060;2023-01-09T07:09:57;1.03;;;0.93;;
10902;SDS011;5504;47.312;11.060;2023-01-09T07:12:23;1.50;;;1.40;;
10902;SDS011;5504;47.312;11.060;2023-01-09T07:14:48;1.30;;;1.20;;
10902;SDS011;5504;47.312;11.060;2023-01-09T07:17:14;1.30;;;1.20;;
10902;SDS011;5504;47.312;11.060;2023-01-09T07:19:40;2.20;;;1.43;;
10902;SDS011;5504;47.312;11.060;2023-01-09T07:22:06;2.57;;;1.60;;
10902;SDS011;5504;47.312;11.060;2023-01-09T07:24:32;2.00;;;1.80;;
10902;SDS011;5504;47.312;11.060;2023-01-09T07:26:57;2.20;;;1.40;;
10902;SDS011;5504;47.312;11.060;2023-01-09T07:29:23;1.80;;;1.10;;
10902;SDS011;5504;47.312;11.060;2023-01-09T07:31:49;1.10;;;0.93;;
10902;SDS011;5504;47.312;11.060;2023-01-09T07:34:14;2.20;;;1.50;;
10902;SDS011;5504;47.312;11.060;2023-01-09T07:36:40;1.70;;;1.10;;
10902;SDS011;5504;47.312;11.060;2023-01-09T07:39:06;1.20;;;1.10;;
10902;SDS011;5504;47.312;11.060;2023-01-09T07:41:33;1.27;;;1.17;;
10902;SDS011;5504;47.312;11.060;2023-01-09T07:43:58;1.50;;;1.40;;
10902;SDS011;5504;47.312;11.060;2023-01-09T07:46:24;1.67;;;1.50;;
10902;SDS011;5504;47.312;11.060;2023-01-09T07:48:50;1.70;;;1.50;;
10902;SDS011;5504;47.312;11.060;2023-01-09T07:51:15;1.97;;;1.47;;
10902;SDS011;5504;47.312;11.060;2023-01-09T07:53:41;1.47;;;1.37;;
10902;SDS011;5504;47.312;11.060;2023-01-09T07:56:07;2.40;;;1.30;;
10902;SDS011;5504;47.312;11.060;2023-01-09T07:58:32;1.20;;;1.10;;
10902;SDS011;5504;47.312;11.060;2023-01-09T08:00:58;1.30;;;1.20;;
10902;SDS011;5504;47.312;11.060;2023-01-09T08:03:24;2.00;;;1.37;;
10902;SDS011;5504;47.312;11.060;2023-01-09T08:05:50;1.27;;;1.17;;
10902;SDS011;5504;47.312;11.060;2023-01-09T08:08:16;1.90;;;1.40;;
10902;SDS011;5504;47.312;11.060;2023-01-09T08:10:42;1.47;;;1.37;;
10902;SDS011;5504;47.312;11.060;2023-01-09T08:13:08;3.63;;;2.00;;
10902;SDS011;5504;47.312;11.060;2023-01-09T08:15:34;1.30;;;1.20;;
10902;SDS011;5504;47.312;11.060;2023-01-09T08:17:59;1.10;;;1.00;;
10902;SDS011;5504;47.312;11.060;2023-01-09T08:20:25;0.97;;;0.90;;
10902;SDS011;5504;47.312;11.060;2023-01-09T08:22:51;1.30;;;0.50;;
10902;SDS011;5504;47.312;11.060;2023-01-09T08:25:18;1.13;;;0.80;;
10902;SDS011;5504;47.312;11.060;2023-01-09T08:27:44;0.57;;;0.57;;
10902;SDS011;5504;47.312;11.060;2023-01-09T08:30:10;1.30;;;1.20;;
10902;SDS011;5504;47.312;11.060;2023-01-09T08:32:36;1.00;;;0.90;;
10902;SDS011;5504;47.312;11.060;2023-01-09T08:35:03;0.80;;;0.80;;
10902;SDS011;5504;47.312;11.060;2023-01-09T08:37:29;0.70;;;0.70;;
10902;SDS011;5504;47.312;11.060;2023-01-09T08:39:55;1.50;;;0.80;;
10902;SDS011;5504;47.312;11.060;2023-01-09T08:42:20;1.37;;;0.87;;
10902;SDS011;5504;47.312;11.060;2023-01-09T08:45:05;0.80;;;0.80;;
10902;SDS011;5504;47.312;11.060;2023-01-09T08:47:49;0.80;;;0.60;;
10902;SDS011;5504;47.312;11.060;2023-01-09T08:50:15;0.90;;;0.77;;
10902;SDS011;5504;47.312;11.060;2023-01-09T08:52:41;0.83;;;0.80;;
10902;SDS011;5504;47.312;11.060;2023-01-09T08:55:07;0.83;;;0.70;;
10902;SDS011;5504;47.312;11.060;2023-01-09T08:57:33;0.50;;;0.50;;
10902;SDS011;5504;47.312;11.060;2023-01-09T08:59:58;0.67;;;0.60;;
10902;SDS011;5504;47.312;11.060;2023-01-09T09:02:24;0.47;;;0.47;;
10902;SDS011;5504;47.312;11.060;2023-01-09T09:04:50;0.50;;;0.50;;
10902;SDS011;5504;47.312;11.060;2023-01-09T09:07:17;0.50;;;0.50;;
10902;SDS011;5504;47.312;11.060;2023-01-09T09:09:53;0.60;;;0.57;;
10902;SDS011;5504;47.312;11.060;2023-01-09T09:12:19;0.47;;;0.47;;
10902;SDS011;5504;47.312;11.060;2023-01-09T09:14:45;0.70;;;0.70;;
10902;SDS011;5504;47.312;11.060;2023-01-09T09:17:30;0.73;;;0.70;;
10902;SDS011;5504;47.312;11.060;2023-01-09T09:19:57;4.60;;;1.67;;
10902;SDS011;5504;47.312;11.060;2023-01-09T09:22:23;9.03;;;2.90;;
10902;SDS011;5504;47.312;11.060;2023-01-09T09:24:48;4.67;;;1.70;;
10902;SDS011;5504;47.312;11.060;2023-01-09T09:27:14;1.33;;;0.70;;
10902;SDS011;5504;47.312;11.060;2023-01-09T09:29:40;1.27;;;0.70;;
10902;SDS011;5504;47.312;11.060;2023-01-09T09:32:05;3.00;;;1.07;;
10902;SDS011;5504;47.312;11.060;2023-01-09T09:34:31;1.83;;;1.57;;
10902;SDS011;5504;47.312;11.060;2023-01-09T09:36:57;1.93;;;1.53;;
10902;SDS011;5504;47.312;11.060;2023-01-09T09:39:22;2.50;;;1.60;;
10902;SDS011;5504;47.312;11.060;2023-01-09T09:50:48;1.60;;;1.10;;
10902;SDS011;5504;47.312;11.060;2023-01-09T09:56:13;1.10;;;0.90;;
10902;SDS011;5504;47.312;11.060;2023-01-09T09:58:43;1.27;;;1.17;;
10902;SDS011;5504;47.312;11.060;2023-01-09T10:01:21;1.03;;;0.90;;
10902;SDS011;5504;47.312;11.060;2023-01-09T10:04:00;4.27;;;1.60;;
10902;SDS011;5504;47.312;11.060;2023-01-09T10:06:34;6.00;;;2.10;;
10902;SDS011;5504;47.312;11.060;2023-01-09T10:14:25;0.70;;;0.70;;
10902;SDS011;5504;47.312;11.060;2023-01-09T10:17:01;1.00;;;0.80;;
10902;SDS011;5504;47.312;11.060;2023-01-09T10:25:26;1.07;;;1.00;;
10902;SDS011;5504;47.312;11.060;2023-01-09T10:35:36;1.20;;;1.10;;
10902;SDS011;5504;47.312;11.060;2023-01-09T10:38:36;1.40;;;1.30;;
10902;SDS011;5504;47.312;11.060;2023-01-09T10:41:15;1.90;;;1.70;;
10902;SDS011;5504;47.312;11.060;2023-01-09T10:46:28;3.10;;;2.30;;
10902;SDS011;5504;47.312;11.060;2023-01-09T10:49:00;2.73;;;2.00;;
10902;SDS011;5504;47.312;11.060;2023-01-09T10:51:34;2.60;;;2.23;;
10902;SDS011;5504;47.312;11.060;2023-01-09T10:54:12;3.03;;;1.90;;
10902;SDS011;5504;47.312;11.060;2023-01-09T10:56:41;2.57;;;2.00;;
10902;SDS011;5504;47.312;11.060;2023-01-09T10:59:11;1.50;;;1.40;;
10902;SDS011;5504;47.312;11.060;2023-01-09T11:01:38;1.70;;;1.60;;
10902;SDS011;5504;47.312;11.060;2023-01-09T11:07:22;2.37;;;1.97;;
10902;SDS011;5504;47.312;11.060;2023-01-09T11:12:35;3.23;;;1.80;;
10902;SDS011;5504;47.312;11.060;2023-01-09T11:17:45;2.60;;;2.00;;
10902;SDS011;5504;47.312;11.060;2023-01-09T11:25:15;2.87;;;2.10;;
10902;SDS011;5504;47.312;11.060;2023-01-09T11:27:42;2.63;;;1.80;;
10902;SDS011;5504;47.312;11.060;2023-01-09T11:32:39;4.23;;;2.90;;
10902;SDS011;5504;47.312;11.060;2023-01-09T11:35:12;4.03;;;2.87;;
10902;SDS011;5504;47.312;11.060;2023-01-09T11:37:41;4.27;;;2.87;;
10902;SDS011;5504;47.312;11.060;2023-01-09T11:40:15;5.07;;;4.37;;
10902;SDS011;5504;47.312;11.060;2023-01-09T11:42:59;4.23;;;3.50;;
10902;SDS011;5504;47.312;11.060;2023-01-09T11:45:30;2.13;;;1.73;;
10902;SDS011;5504;47.312;11.060;2023-01-09T11:47:58;2.63;;;1.90;;
10902;SDS011;5504;47.312;11.060;2023-01-09T11:50:26;2.87;;;2.10;;
10902;SDS011;5504;47.312;11.060;2023-01-09T11:55:40;2.00;;;1.83;;
10902;SDS011;5504;47.312;11.060;2023-01-09T11:58:12;2.23;;;2.00;;
10902;SDS011;5504;47.312;11.060;2023-01-09T12:03:52;3.20;;;2.40;;
10902;SDS011;5504;47.312;11.060;2023-01-09T12:06:42;3.83;;;3.50;;
10902;SDS011;5504;47.312;11.060;2023-01-09T12:09:44;4.00;;;3.07;;
10902;SDS011;5504;47.312;11.060;2023-01-09T12:26:21;4.80;;;3.40;;
10902;SDS011;5504;47.312;11.060;2023-01-09T12:42:39;4.13;;;3.20;;
10902;SDS011;5504;47.312;11.060;2023-01-09T12:45:30;3.00;;;2.70;;
10902;SDS011;5504;47.312;11.060;2023-01-09T12:54:13;5.90;;;4.47;;
10902;SDS011;5504;47.312;11.060;2023-01-09T12:56:51;3.60;;;3.20;;
10902;SDS011;5504;47.312;11.060;2023-01-09T12:59:26;3.80;;;3.03;;
10902;SDS011;5504;47.312;11.060;2023-01-09T13:02:04;5.43;;;4.10;;
10902;SDS011;5504;47.312;11.060;2023-01-09T13:04:32;4.77;;;4.07;;
10902;SDS011;5504;47.312;11.060;2023-01-09T13:07:04;3.57;;;2.80;;
10902;SDS011;5504;47.312;11.060;2023-01-09T13:12:12;3.27;;;2.87;;
10902;SDS011;5504;47.312;11.060;2023-01-09T13:22:58;11.43;;;7.40;;
10902;SDS011;5504;47.312;11.060;2023-01-09T13:25:35;6.40;;;3.87;;
10902;SDS011;5504;47.312;11.060;2023-01-09T13:28:05;5.27;;;3.80;;
10902;SDS011;5504;47.312;11.060;2023-01-09T13:33:33;5.30;;;4.07;;
10902;SDS011;5504;47.312;11.060;2023-01-09T13:36:03;6.40;;;3.93;;
10902;SDS011;5504;47.312;11.060;2023-01-09T13:38:30;5.87;;;3.80;;
10902;SDS011;5504;47.312;11.060;2023-01-09T13:44:02;4.83;;;3.80;;
10902;SDS011;5504;47.312;11.060;2023-01-09T13:46:48;4.60;;;3.60;;
10902;SDS011;5504;47.312;11.060;2023-01-09T13:49:56;4.97;;;3.77;;
10902;SDS011;5504;47.312;11.060;2023-01-09T14:08:17;5.80;;;5.20;;
10902;SDS011;5504;47.312;11.060;2023-01-09T14:10:52;6.70;;;5.50;;
10902;SDS011;5504;47.312;11.060;2023-01-09T14:13:23;7.67;;;5.27;;
10902;SDS011;5504;47.312;11.060;2023-01-09T14:15:52;5.83;;;4.60;;
10902;SDS011;5504;47.312;11.060;2023-01-09T14:18:33;8.03;;;5.93;;
10902;SDS011;5504;47.312;11.060;2023-01-09T14:21:05;6.43;;;5.50;;
10902;SDS011;5504;47.312;11.060;2023-01-09T14:23:51;6.07;;;5.10;;
10902;SDS011;5504;47.312;11.060;2023-01-09T14:37:36;7.70;;;6.10;;
10902;SDS011;5504;47.312;11.060;2023-01-09T14:40:04;8.07;;;6.80;;
10902;SDS011;5504;47.312;11.060;2023-01-09T14:42:31;7.97;;;6.60;;
10902;SDS011;5504;47.312;11.060;2023-01-09T14:45:19;5.97;;;5.30;;
10902;SDS011;5504;47.312;11.060;2023-01-09T14:50:33;6.70;;;5.70;;
10902;SDS011;5504;47.312;11.060;2023-01-09T14:53:19;6.53;;;5.50;;
10902;SDS011;5504;47.312;11.060;2023-01-09T14:56:16;6.93;;;5.33;;
10902;SDS011;5504;47.312;11.060;2023-01-09T14:58:48;6.53;;;5.37;;
10902;SDS011;5504;47.312;11.060;2023-01-09T15:01:26;7.87;;;6.03;;
10902;SDS011;5504;47.312;11.060;2023-01-09T15:04:06;9.70;;;7.23;;
10902;SDS011;5504;47.312;11.060;2023-01-09T15:06:46;9.33;;;6.53;;
10902;SDS011;5504;47.312;11.060;2023-01-09T15:09:18;9.07;;;6.73;;
10902;SDS011;5504;47.312;11.060;2023-01-09T15:11:51;8.97;;;6.20;;
10902;SDS011;5504;47.312;11.060;2023-01-09T15:14:52;6.03;;;5.37;;
10902;SDS011;5504;47.312;11.060;2023-01-09T15:17:18;7.60;;;5.40;;
10902;SDS011;5504;47.312;11.060;2023-01-09T15:19:48;6.10;;;5.10;;
10902;SDS011;5504;47.312;11.060;2023-01-09T15:22:21;5.97;;;4.70;;
10902;SDS011;5504;47.312;11.060;2023-01-09T15:24:58;4.80;;;4.30;;
10902;SDS011;5504;47.312;11.060;2023-01-09T15:27:45;4.93;;;3.93;;
10902;SDS011;5504;47.312;11.060;2023-01-09T15:30:16;6.67;;;4.70;;
10902;SDS011;5504;47.312;11.060;2023-01-09T15:32:47;4.73;;;4.13;;
10902;SDS011;5504;47.312;11.060;2023-01-09T15:35:16;4.17;;;3.77;;
10902;SDS011;5504;47.312;11.060;2023-01-09T15:37:42;6.20;;;4.20;;
10902;SDS011;5504;47.312;11.060;2023-01-09T15:40:16;4.37;;;3.77;;
10902;SDS011;5504;47.312;11.060;2023-01-09T15:42:46;5.10;;;4.10;;
10902;SDS011;5504;47.312;11.060;2023-01-09T15:45:26;6.27;;;4.50;;
10902;SDS011;5504;47.312;11.060;2023-01-09T15:48:20;7.23;;;5.97;;
10902;SDS011;5504;47.312;11.060;2023-01-09T15:50:46;6.20;;;5.53;;
10902;SDS011;5504;47.312;11.060;2023-01-09T15:53:14;7.50;;;6.37;;
10902;SDS011;5504;47.312;11.060;2023-01-09T15:55:45;6.10;;;4.30;;
10902;SDS011;5504;47.312;11.060;2023-01-09T15:58:35;5.13;;;3.77;;
10902;SDS011;5504;47.312;11.060;2023-01-09T16:01:05;4.17;;;3.50;;
10902;SDS011;5504;47.312;11.060;2023-01-09T16:03:44;4.40;;;4.00;;
10902;SDS011;5504;47.312;11.060;2023-01-09T16:06:13;4.43;;;3.80;;
10902;SDS011;5504;47.312;11.060;2023-01-09T16:08:59;4.50;;;3.50;;
10902;SDS011;5504;47.312;11.060;2023-01-09T16:11:35;4.03;;;3.63;;
10902;SDS011;5504;47.312;11.060;2023-01-09T16:15:02;5.80;;;3.30;;
10902;SDS011;5504;47.312;11.060;2023-01-09T16:17:02;5.00;;;2.70;;
10902;SDS011;5504;47.312;11.060;2023-01-09T16:22:16;4.60;;;3.47;;
10902;SDS011;5504;47.312;11.060;2023-01-09T16:24:44;4.00;;;3.20;;
10902;SDS011;5504;47.312;11.060;2023-01-09T16:29:54;4.27;;;3.50;;
10902;SDS011;5504;47.312;11.060;2023-01-09T16:32:28;9.87;;;5.40;;
10902;SDS011;5504;47.312;11.060;2023-01-09T16:35:01;4.67;;;3.40;;
10902;SDS011;5504;47.312;11.060;2023-01-09T16:37:29;3.80;;;3.30;;
10902;SDS011;5504;47.312;11.060;2023-01-09T16:42:45;4.30;;;3.27;;
10902;SDS011;5504;47.312;11.060;2023-01-09T16:48:13;5.37;;;3.80;;
10902;SDS011;5504;47.312;11.060;2023-01-09T16:50:44;5.70;;;3.90;;
10902;SDS011;5504;47.312;11.060;2023-01-09T16:55:41;2.30;;;2.00;;
10902;SDS011;5504;47.312;11.060;2023-01-09T16:58:13;3.07;;;2.37;;
10902;SDS011;5504;47.312;11.060;2023-01-09T17:00:42;2.53;;;1.80;;
10902;SDS011;5504;47.312;11.060;2023-01-09T17:03:12;2.50;;;1.87;;
10902;SDS011;5504;47.312;11.060;2023-01-09T17:05:39;3.00;;;2.07;;
10902;SDS011;5504;47.312;11.060;2023-01-09T17:08:38;1.40;;;1.30;;
10902;SDS011;5504;47.312;11.060;2023-01-09T17:10:59;1.60;;;1.20;;
10902;SDS011;5504;47.312;11.060;2023-01-09T17:13:25;1.53;;;1.03;;
10902;SDS011;5504;47.312;11.060;2023-01-09T17:15:51;1.27;;;1.10;;
10902;SDS011;5504;47.312;11.060;2023-01-09T17:18:20;1.30;;;1.17;;
10902;SDS011;5504;47.312;11.060;2023-01-09T17:20:51;1.60;;;1.40;;
10902;SDS011;5504;47.312;11.060;2023-01-09T17:23:18;2.40;;;1.47;;
10902;SDS011;5504;47.312;11.060;2023-01-09T17:25:46;1.90;;;1.00;;
10902;SDS011;5504;47.312;11.060;2023-01-09T17:28:36;0.83;;;0.83;;
10902;SDS011;5504;47.312;11.060;2023-01-09T17:31:03;2.10;;;0.90;;
10902;SDS011;5504;47.312;11.060;2023-01-09T17:33:31;1.57;;;1.07;;
10902;SDS011;5504;47.312;11.060;2023-01-09T17:35:57;1.07;;;0.60;;
10902;SDS011;5504;47.312;11.060;2023-01-09T17:38:25;0.60;;;0.60;;
10902;SDS011;5504;47.312;11.060;2023-01-09T17:40:51;0.60;;;0.60;;
10902;SDS011;5504;47.312;11.060;2023-01-09T17:43:16;0.67;;;0.67;;
10902;SDS011;5504;47.312;11.060;2023-01-09T17:45:42;0.63;;;0.63;;
10902;SDS011;5504;47.312;11.060;2023-01-09T17:48:16;0.70;;;0.60;;
10902;SDS011;5504;47.312;11.060;2023-01-09T17:50:43;0.70;;;0.60;;
10902;SDS011;5504;47.312;11.060;2023-01-09T17:53:10;1.00;;;0.60;;
10902;SDS011;5504;47.312;11.060;2023-01-09T17:55:36;0.80;;;0.67;;
10902;SDS011;5504;47.312;11.060;2023-01-09T17:58:03;0.60;;;0.60;;
10902;SDS011;5504;47.312;11.060;2023-01-09T18:00:30;1.73;;;0.70;;
10902;SDS011;5504;47.312;11.060;2023-01-09T18:03:00;0.53;;;0.53;;
10902;SDS011;5504;47.312;11.060;2023-01-09T18:05:32;1.90;;;1.80;;